sensor_id;sensor_type;location;lat;lon;timestamp;P1;durP1;ratioP1;P2;durP2;ratioP2
76405;SDS011;65234;50.044;19.258;2023-04-06T00:01:57;138.18;;;129.50;;
76405;SDS011;65234;50.044;19.258;2023-04-06T00:04:23;136.95;;;129.07;;
76405;SDS011;65234;50.044;19.258;2023-04-06T00:06:48;139.77;;;131.55;;
76405;SDS011;65234;50.044;19.258;2023-04-06T00:09:14;132.57;;;125.10;;
76405;SDS011;65234;50.044;19.258;2023-04-06T00:11:41;137.13;;;129.05;;
76405;SDS011;65234;50.044;19.258;2023-04-06T00:14:06;133.85;;;125.75;;
76405;SDS011;65234;50.044;19.258;2023-04-06T00:16:32;138.20;;;129.93;;
76405;SDS011;65234;50.044;19.258;2023-04-06T00:18:57;143.50;;;135.07;;
76405;SDS011;65234;50.044;19.258;2023-04-06T00:21:23;135.88;;;128.32;;
76405;SDS011;65234;50.044;19.258;2023-04-06T00:23:48;135.00;;;127.30;;
76405;SDS011;65234;50.044;19.258;2023-04-06T00:26:14;137.05;;;129.32;;
76405;SDS011;65234;50.044;19.258;2023-04-06T00:28:41;142.00;;;134.15;;
76405;SDS011;65234;50.044;19.258;2023-04-06T00:31:06;140.85;;;132.45;;
76405;SDS011;65234;50.044;19.258;2023-04-06T00:33:32;135.05;;;127.53;;
76405;SDS011;65234;50.044;19.258;2023-04-06T00:35:57;132.05;;;124.85;;
76405;SDS011;65234;50.044;19.258;2023-04-06T00:38:23;133.43;;;126.05;;
76405;SDS011;65234;50.044;19.258;2023-04-06T00:40:48;135.18;;;127.38;;
76405;SDS011;65234;50.044;19.258;2023-04-06T00:43:14;137.80;;;129.88;;
76405;SDS011;65234;50.044;19.258;2023-04-06T00:45:41;133.98;;;126.43;;
76405;SDS011;65234;50.044;19.258;2023-04-06T00:48:07;146.63;;;135.60;;
76405;SDS011;65234;50.044;19.258;2023-04-06T00:50:33;133.18;;;125.53;;
76405;SDS011;65234;50.044;19.258;2023-04-06T00:52:58;134.52;;;126.22;;
76405;SDS011;65234;50.044;19.258;2023-04-06T00:55:25;129.50;;;121.78;;
76405;SDS011;65234;50.044;19.258;2023-04-06T00:57:51;132.63;;;124.68;;
76405;SDS011;65234;50.044;19.258;2023-04-06T01:00:17;134.32;;;126.63;;
76405;SDS011;65234;50.044;19.258;2023-04-06T01:02:44;131.82;;;124.25;;
76405;SDS011;65234;50.044;19.258;2023-04-06T01:05:09;129.85;;;122.75;;
76405;SDS011;65234;50.044;19.258;2023-04-06T01:07:35;130.23;;;123.35;;
76405;SDS011;65234;50.044;19.258;2023-04-06T01:10:01;128.75;;;121.63;;
76405;SDS011;65234;50.044;19.258;2023-04-06T01:12:27;128.55;;;120.93;;
76405;SDS011;65234;50.044;19.258;2023-04-06T01:14:52;131.73;;;124.32;;
76405;SDS011;65234;50.044;19.258;2023-04-06T01:17:18;128.93;;;122.05;;
76405;SDS011;65234;50.044;19.258;2023-04-06T01:19:44;132.13;;;124.85;;
76405;SDS011;65234;50.044;19.258;2023-04-06T01:22:15;130.18;;;122.20;;
76405;SDS011;65234;50.044;19.258;2023-04-06T01:24:40;127.85;;;120.38;;
76405;SDS011;65234;50.044;19.258;2023-04-06T01:27:06;127.22;;;120.53;;
76405;SDS011;65234;50.044;19.258;2023-04-06T01:29:31;128.48;;;121.00;;
76405;SDS011;65234;50.044;19.258;2023-04-06T01:31:57;130.48;;;123.35;;
76405;SDS011;65234;50.044;19.258;2023-04-06T01:34:22;128.23;;;120.88;;
76405;SDS011;65234;50.044;19.258;2023-04-06T01:36:48;129.13;;;121.82;;
76405;SDS011;65234;50.044;19.258;2023-04-06T01:39:15;124.72;;;118.10;;
76405;SDS011;65234;50.044;19.258;2023-04-06T01:41:40;126.18;;;119.03;;
76405;SDS011;65234;50.044;19.258;2023-04-06T01:44:06;131.45;;;124.10;;
76405;SDS011;65234;50.044;19.258;2023-04-06T01:46:31;126.47;;;119.15;;
76405;SDS011;65234;50.044;19.258;2023-04-06T01:48:57;128.35;;;121.55;;
76405;SDS011;65234;50.044;19.258;2023-04-06T01:51:22;129.20;;;122.07;;
76405;SDS011;65234;50.044;19.258;2023-04-06T01:53:48;125.40;;;118.63;;
76405;SDS011;65234;50.044;19.258;2023-04-06T01:56:15;131.00;;;124.18;;
76405;SDS011;65234;50.044;19.258;2023-04-06T01:58:40;127.13;;;120.18;;
76405;SDS011;65234;50.044;19.258;2023-04-06T02:01:06;128.77;;;121.95;;
76405;SDS011;65234;50.044;19.258;2023-04-06T02:03:31;129.52;;;122.35;;
76405;SDS011;65234;50.044;19.258;2023-04-06T02:05:57;127.88;;;120.82;;
76405;SDS011;65234;50.044;19.258;2023-04-06T02:08:23;126.05;;;118.95;;
76405;SDS011;65234;50.044;19.258;2023-04-06T02:10:48;125.75;;;118.82;;
76405;SDS011;65234;50.044;19.258;2023-04-06T02:13:15;125.57;;;118.53;;
76405;SDS011;65234;50.044;19.258;2023-04-06T02:15:41;124.47;;;117.68;;
76405;SDS011;65234;50.044;19.258;2023-04-06T02:18:06;121.97;;;115.53;;
76405;SDS011;65234;50.044;19.258;2023-04-06T02:20:32;127.38;;;120.47;;
76405;SDS011;65234;50.044;19.258;2023-04-06T02:22:58;123.20;;;116.45;;
76405;SDS011;65234;50.044;19.258;2023-04-06T02:25:24;124.68;;;118.10;;
76405;SDS011;65234;50.044;19.258;2023-04-06T02:27:49;126.35;;;119.22;;
76405;SDS011;65234;50.044;19.258;2023-04-06T02:30:16;125.40;;;118.40;;
76405;SDS011;65234;50.044;19.258;2023-04-06T02:32:41;122.28;;;115.60;;
76405;SDS011;65234;50.044;19.258;2023-04-06T02:35:07;120.50;;;114.15;;
76405;SDS011;65234;50.044;19.258;2023-04-06T02:37:33;118.60;;;112.18;;
76405;SDS011;65234;50.044;19.258;2023-04-06T02:39:58;124.30;;;117.57;;
76405;SDS011;65234;50.044;19.258;2023-04-06T02:42:24;122.65;;;115.70;;
76405;SDS011;65234;50.044;19.258;2023-04-06T02:44:49;121.70;;;115.05;;
76405;SDS011;65234;50.044;19.258;2023-04-06T02:47:16;122.13;;;115.32;;
76405;SDS011;65234;50.044;19.258;2023-04-06T02:49:42;121.75;;;115.10;;
76405;SDS011;65234;50.044;19.258;2023-04-06T02:52:07;120.35;;;114.07;;
76405;SDS011;65234;50.044;19.258;2023-04-06T02:54:33;122.60;;;115.82;;
76405;SDS011;65234;50.044;19.258;2023-04-06T02:56:58;121.13;;;114.60;;
76405;SDS011;65234;50.044;19.258;2023-04-06T02:59:24;121.53;;;115.13;;
76405;SDS011;65234;50.044;19.258;2023-04-06T03:01:49;118.10;;;111.88;;
76405;SDS011;65234;50.044;19.258;2023-04-06T03:04:16;122.10;;;115.40;;
76405;SDS011;65234;50.044;19.258;2023-04-06T03:06:42;121.10;;;114.05;;
76405;SDS011;65234;50.044;19.258;2023-04-06T03:09:08;119.00;;;112.55;;
76405;SDS011;65234;50.044;19.258;2023-04-06T03:11:33;119.38;;;112.90;;
76405;SDS011;65234;50.044;19.258;2023-04-06T03:13:59;122.38;;;115.85;;
76405;SDS011;65234;50.044;19.258;2023-04-06T03:16:24;120.75;;;113.82;;
76405;SDS011;65234;50.044;19.258;2023-04-06T03:18:50;120.88;;;114.72;;
76405;SDS011;65234;50.044;19.258;2023-04-06T03:21:17;119.40;;;112.78;;
76405;SDS011;65234;50.044;19.258;2023-04-06T03:23:42;123.22;;;116.72;;
76405;SDS011;65234;50.044;19.258;2023-04-06T03:26:08;120.82;;;114.50;;
76405;SDS011;65234;50.044;19.258;2023-04-06T03:28:34;114.60;;;108.55;;
76405;SDS011;65234;50.044;19.258;2023-04-06T03:30:59;118.82;;;112.20;;
76405;SDS011;65234;50.044;19.258;2023-04-06T03:33:25;117.18;;;110.93;;
76405;SDS011;65234;50.044;19.258;2023-04-06T03:35:50;120.30;;;113.40;;
76405;SDS011;65234;50.044;19.258;2023-04-06T03:38:17;114.90;;;108.53;;
76405;SDS011;65234;50.044;19.258;2023-04-06T03:40:43;120.82;;;114.53;;
76405;SDS011;65234;50.044;19.258;2023-04-06T03:43:08;113.50;;;107.25;;
76405;SDS011;65234;50.044;19.258;2023-04-06T03:45:34;114.47;;;108.55;;
76405;SDS011;65234;50.044;19.258;2023-04-06T03:47:59;115.90;;;109.78;;
76405;SDS011;65234;50.044;19.258;2023-04-06T03:50:25;116.72;;;110.65;;
76405;SDS011;65234;50.044;19.258;2023-04-06T03:52:50;113.28;;;107.30;;
76405;SDS011;65234;50.044;19.258;2023-04-06T03:55:17;115.70;;;109.88;;
76405;SDS011;65234;50.044;19.258;2023-04-06T03:57:43;117.93;;;111.78;;
76405;SDS011;65234;50.044;19.258;2023-04-06T04:00:09;115.15;;;108.82;;
76405;SDS011;65234;50.044;19.258;2023-04-06T04:02:35;115.68;;;109.60;;
76405;SDS011;65234;50.044;19.258;2023-04-06T04:05:00;114.47;;;108.30;;
76405;SDS011;65234;50.044;19.258;2023-04-06T04:07:26;116.68;;;110.40;;
76405;SDS011;65234;50.044;19.258;2023-04-06T04:09:51;115.55;;;109.93;;
76405;SDS011;65234;50.044;19.258;2023-04-06T04:12:18;114.32;;;107.93;;
76405;SDS011;65234;50.044;19.258;2023-04-06T04:14:44;113.30;;;107.50;;
76405;SDS011;65234;50.044;19.258;2023-04-06T04:17:10;113.97;;;107.40;;
76405;SDS011;65234;50.044;19.258;2023-04-06T04:19:35;110.38;;;104.10;;
76405;SDS011;65234;50.044;19.258;2023-04-06T04:22:01;114.93;;;108.50;;
76405;SDS011;65234;50.044;19.258;2023-04-06T04:24:26;111.88;;;106.20;;
76405;SDS011;65234;50.044;19.258;2023-04-06T04:26:52;111.30;;;105.32;;
76405;SDS011;65234;50.044;19.258;2023-04-06T04:29:18;114.65;;;108.40;;
76405;SDS011;65234;50.044;19.258;2023-04-06T04:31:44;113.40;;;107.40;;
76405;SDS011;65234;50.044;19.258;2023-04-06T04:34:09;115.07;;;109.07;;
76405;SDS011;65234;50.044;19.258;2023-04-06T04:36:35;114.60;;;107.68;;
76405;SDS011;65234;50.044;19.258;2023-04-06T04:39:00;112.57;;;106.28;;
76405;SDS011;65234;50.044;19.258;2023-04-06T04:41:26;113.28;;;107.40;;
76405;SDS011;65234;50.044;19.258;2023-04-06T04:43:51;117.60;;;111.28;;
76405;SDS011;65234;50.044;19.258;2023-04-06T04:46:18;113.97;;;107.72;;
76405;SDS011;65234;50.044;19.258;2023-04-06T04:48:44;112.38;;;106.45;;
76405;SDS011;65234;50.044;19.258;2023-04-06T04:51:09;116.20;;;109.93;;
76405;SDS011;65234;50.044;19.258;2023-04-06T04:53:35;114.13;;;108.10;;
76405;SDS011;65234;50.044;19.258;2023-04-06T04:56:01;110.18;;;104.70;;
76405;SDS011;65234;50.044;19.258;2023-04-06T04:58:26;112.25;;;106.82;;
76405;SDS011;65234;50.044;19.258;2023-04-06T05:00:52;114.25;;;107.85;;
76405;SDS011;65234;50.044;19.258;2023-04-06T05:03:20;113.47;;;107.70;;
76405;SDS011;65234;50.044;19.258;2023-04-06T05:05:46;112.72;;;107.00;;
76405;SDS011;65234;50.044;19.258;2023-04-06T05:08:11;115.57;;;109.68;;
76405;SDS011;65234;50.044;19.258;2023-04-06T05:10:37;108.28;;;102.93;;
76405;SDS011;65234;50.044;19.258;2023-04-06T05:13:03;109.65;;;104.10;;
76405;SDS011;65234;50.044;19.258;2023-04-06T05:15:28;113.80;;;107.70;;
76405;SDS011;65234;50.044;19.258;2023-04-06T05:17:54;112.97;;;106.68;;
76405;SDS011;65234;50.044;19.258;2023-04-06T05:20:21;114.68;;;108.70;;
76405;SDS011;65234;50.044;19.258;2023-04-06T05:22:46;106.35;;;100.93;;
76405;SDS011;65234;50.044;19.258;2023-04-06T05:25:12;108.82;;;103.40;;
76405;SDS011;65234;50.044;19.258;2023-04-06T05:27:38;117.95;;;111.40;;
76405;SDS011;65234;50.044;19.258;2023-04-06T05:30:04;115.03;;;107.95;;
76405;SDS011;65234;50.044;19.258;2023-04-06T05:32:29;112.47;;;106.53;;
76405;SDS011;65234;50.044;19.258;2023-04-06T05:34:55;110.90;;;104.95;;
76405;SDS011;65234;50.044;19.258;2023-04-06T05:37:22;112.45;;;106.70;;
76405;SDS011;65234;50.044;19.258;2023-04-06T05:39:47;112.25;;;106.47;;
76405;SDS011;65234;50.044;19.258;2023-04-06T05:42:13;107.97;;;102.28;;
76405;SDS011;65234;50.044;19.258;2023-04-06T05:44:38;110.75;;;104.78;;
76405;SDS011;65234;50.044;19.258;2023-04-06T05:47:04;114.55;;;108.55;;
76405;SDS011;65234;50.044;19.258;2023-04-06T05:49:29;110.53;;;104.47;;
76405;SDS011;65234;50.044;19.258;2023-04-06T05:51:55;108.50;;;103.07;;
76405;SDS011;65234;50.044;19.258;2023-04-06T05:54:22;107.20;;;101.72;;
76405;SDS011;65234;50.044;19.258;2023-04-06T05:56:47;115.22;;;109.28;;
76405;SDS011;65234;50.044;19.258;2023-04-06T05:59:13;109.78;;;104.03;;
76405;SDS011;65234;50.044;19.258;2023-04-06T06:01:38;112.40;;;106.30;;
76405;SDS011;65234;50.044;19.258;2023-04-06T06:04:04;113.10;;;107.07;;
76405;SDS011;65234;50.044;19.258;2023-04-06T06:06:29;107.75;;;101.95;;
76405;SDS011;65234;50.044;19.258;2023-04-06T06:08:55;108.72;;;103.13;;
76405;SDS011;65234;50.044;19.258;2023-04-06T06:11:22;107.95;;;102.13;;
76405;SDS011;65234;50.044;19.258;2023-04-06T06:13:48;111.35;;;105.50;;
76405;SDS011;65234;50.044;19.258;2023-04-06T06:16:13;114.45;;;108.15;;
76405;SDS011;65234;50.044;19.258;2023-04-06T06:18:39;109.35;;;103.88;;
76405;SDS011;65234;50.044;19.258;2023-04-06T06:21:04;110.75;;;104.38;;
76405;SDS011;65234;50.044;19.258;2023-04-06T06:23:30;108.82;;;102.70;;
76405;SDS011;65234;50.044;19.258;2023-04-06T06:25:55;107.53;;;102.22;;
76405;SDS011;65234;50.044;19.258;2023-04-06T06:28:22;108.88;;;103.35;;
76405;SDS011;65234;50.044;19.258;2023-04-06T06:30:47;111.40;;;105.10;;
76405;SDS011;65234;50.044;19.258;2023-04-06T06:33:13;110.40;;;104.57;;
76405;SDS011;65234;50.044;19.258;2023-04-06T06:35:38;113.30;;;106.88;;
76405;SDS011;65234;50.044;19.258;2023-04-06T06:38:04;110.38;;;104.35;;
76405;SDS011;65234;50.044;19.258;2023-04-06T06:40:30;111.13;;;105.35;;
76405;SDS011;65234;50.044;19.258;2023-04-06T06:42:55;107.43;;;102.05;;
76405;SDS011;65234;50.044;19.258;2023-04-06T06:45:22;110.35;;;104.70;;
76405;SDS011;65234;50.044;19.258;2023-04-06T06:47:48;111.18;;;105.80;;
76405;SDS011;65234;50.044;19.258;2023-04-06T06:50:13;107.93;;;102.45;;
76405;SDS011;65234;50.044;19.258;2023-04-06T06:52:39;111.95;;;106.03;;
76405;SDS011;65234;50.044;19.258;2023-04-06T06:55:05;107.05;;;101.22;;
76405;SDS011;65234;50.044;19.258;2023-04-06T06:57:30;108.20;;;102.88;;
76405;SDS011;65234;50.044;19.258;2023-04-06T06:59:56;109.43;;;103.85;;
76405;SDS011;65234;50.044;19.258;2023-04-06T07:02:23;108.03;;;102.68;;
76405;SDS011;65234;50.044;19.258;2023-04-06T07:04:48;110.30;;;104.47;;
76405;SDS011;65234;50.044;19.258;2023-04-06T07:07:14;105.93;;;100.35;;
76405;SDS011;65234;50.044;19.258;2023-04-06T07:09:39;113.35;;;107.22;;
76405;SDS011;65234;50.044;19.258;2023-04-06T07:12:05;110.03;;;104.53;;
76405;SDS011;65234;50.044;19.258;2023-04-06T07:14:30;108.78;;;103.07;;
76405;SDS011;65234;50.044;19.258;2023-04-06T07:16:56;111.88;;;106.45;;
76405;SDS011;65234;50.044;19.258;2023-04-06T07:19:23;111.90;;;106.28;;
76405;SDS011;65234;50.044;19.258;2023-04-06T07:21:48;110.00;;;104.55;;
76405;SDS011;65234;50.044;19.258;2023-04-06T07:24:14;112.82;;;107.38;;
76405;SDS011;65234;50.044;19.258;2023-04-06T07:26:40;110.50;;;105.15;;
76405;SDS011;65234;50.044;19.258;2023-04-06T07:29:05;113.35;;;107.55;;
76405;SDS011;65234;50.044;19.258;2023-04-06T07:31:31;111.40;;;105.80;;
76405;SDS011;65234;50.044;19.258;2023-04-06T07:33:56;110.93;;;105.38;;
76405;SDS011;65234;50.044;19.258;2023-04-06T07:36:23;108.88;;;103.53;;
76405;SDS011;65234;50.044;19.258;2023-04-06T07:38:48;108.88;;;103.35;;
76405;SDS011;65234;50.044;19.258;2023-04-06T07:41:14;111.82;;;106.40;;
76405;SDS011;65234;50.044;19.258;2023-04-06T07:43:39;109.85;;;104.32;;
76405;SDS011;65234;50.044;19.258;2023-04-06T07:46:05;113.25;;;107.57;;
76405;SDS011;65234;50.044;19.258;2023-04-06T07:48:31;110.50;;;104.82;;
76405;SDS011;65234;50.044;19.258;2023-04-06T07:51:00;110.93;;;104.88;;
76405;SDS011;65234;50.044;19.258;2023-04-06T07:53:27;112.88;;;107.32;;
76405;SDS011;65234;50.044;19.258;2023-04-06T07:55:53;114.15;;;107.38;;
76405;SDS011;65234;50.044;19.258;2023-04-06T07:58:18;114.30;;;108.43;;
76405;SDS011;65234;50.044;19.258;2023-04-06T08:00:44;114.10;;;107.57;;
76405;SDS011;65234;50.044;19.258;2023-04-06T08:03:09;111.15;;;105.43;;
76405;SDS011;65234;50.044;19.258;2023-04-06T08:05:35;116.00;;;109.28;;
76405;SDS011;65234;50.044;19.258;2023-04-06T08:08:00;116.43;;;110.18;;
76405;SDS011;65234;50.044;19.258;2023-04-06T08:10:27;114.80;;;109.13;;
76405;SDS011;65234;50.044;19.258;2023-04-06T08:12:53;115.28;;;109.53;;
76405;SDS011;65234;50.044;19.258;2023-04-06T08:15:18;111.95;;;106.25;;
76405;SDS011;65234;50.044;19.258;2023-04-06T08:17:44;117.55;;;111.13;;
76405;SDS011;65234;50.044;19.258;2023-04-06T08:20:10;113.72;;;107.60;;
76405;SDS011;65234;50.044;19.258;2023-04-06T08:22:35;116.63;;;111.00;;
76405;SDS011;65234;50.044;19.258;2023-04-06T08:25:01;110.05;;;104.57;;
76405;SDS011;65234;50.044;19.258;2023-04-06T08:27:28;114.80;;;109.05;;
76405;SDS011;65234;50.044;19.258;2023-04-06T08:29:53;112.13;;;106.55;;
76405;SDS011;65234;50.044;19.258;2023-04-06T08:32:19;114.75;;;109.47;;
76405;SDS011;65234;50.044;19.258;2023-04-06T08:34:44;113.68;;;107.97;;
76405;SDS011;65234;50.044;19.258;2023-04-06T08:37:10;114.70;;;108.53;;
76405;SDS011;65234;50.044;19.258;2023-04-06T08:39:35;114.90;;;108.90;;
76405;SDS011;65234;50.044;19.258;2023-04-06T08:42:01;112.07;;;106.47;;
76405;SDS011;65234;50.044;19.258;2023-04-06T08:44:27;117.80;;;111.88;;
76405;SDS011;65234;50.044;19.258;2023-04-06T08:46:53;112.25;;;106.97;;
76405;SDS011;65234;50.044;19.258;2023-04-06T08:49:19;111.72;;;106.30;;
76405;SDS011;65234;50.044;19.258;2023-04-06T08:51:44;113.40;;;108.03;;
76405;SDS011;65234;50.044;19.258;2023-04-06T08:54:10;115.65;;;109.97;;
76405;SDS011;65234;50.044;19.258;2023-04-06T08:56:37;117.47;;;111.88;;
76405;SDS011;65234;50.044;19.258;2023-04-06T08:59:02;115.18;;;109.63;;
76405;SDS011;65234;50.044;19.258;2023-04-06T09:01:29;116.03;;;110.57;;
76405;SDS011;65234;50.044;19.258;2023-04-06T09:03:56;112.75;;;107.30;;
76405;SDS011;65234;50.044;19.258;2023-04-06T09:06:22;115.95;;;109.95;;
76405;SDS011;65234;50.044;19.258;2023-04-06T09:08:47;116.95;;;111.05;;
76405;SDS011;65234;50.044;19.258;2023-04-06T09:11:13;113.38;;;107.90;;
76405;SDS011;65234;50.044;19.258;2023-04-06T09:13:44;113.93;;;108.03;;
76405;SDS011;65234;50.044;19.258;2023-04-06T09:16:10;110.30;;;105.03;;
76405;SDS011;65234;50.044;19.258;2023-04-06T09:18:37;111.03;;;105.53;;
76405;SDS011;65234;50.044;19.258;2023-04-06T09:21:03;115.50;;;109.82;;
76405;SDS011;65234;50.044;19.258;2023-04-06T09:23:28;110.53;;;105.18;;
76405;SDS011;65234;50.044;19.258;2023-04-06T09:28:41;108.82;;;103.90;;
76405;SDS011;65234;50.044;19.258;2023-04-06T09:31:06;108.68;;;103.47;;
76405;SDS011;65234;50.044;19.258;2023-04-06T09:33:32;109.40;;;104.22;;
76405;SDS011;65234;50.044;19.258;2023-04-06T09:35:59;107.28;;;102.30;;
76405;SDS011;65234;50.044;19.258;2023-04-06T09:38:24;108.30;;;103.10;;
76405;SDS011;65234;50.044;19.258;2023-04-06T09:40:50;111.13;;;105.75;;
76405;SDS011;65234;50.044;19.258;2023-04-06T09:43:23;112.97;;;107.68;;
76405;SDS011;65234;50.044;19.258;2023-04-06T09:45:48;111.60;;;105.90;;
76405;SDS011;65234;50.044;19.258;2023-04-06T09:48:14;113.10;;;107.45;;
76405;SDS011;65234;50.044;19.258;2023-04-06T09:50:39;112.30;;;107.20;;
76405;SDS011;65234;50.044;19.258;2023-04-06T09:53:06;111.43;;;105.88;;
76405;SDS011;65234;50.044;19.258;2023-04-06T09:55:35;112.38;;;106.72;;
76405;SDS011;65234;50.044;19.258;2023-04-06T09:58:03;111.10;;;105.63;;
76405;SDS011;65234;50.044;19.258;2023-04-06T10:00:29;111.45;;;105.97;;
76405;SDS011;65234;50.044;19.258;2023-04-06T10:02:58;111.97;;;106.72;;
76405;SDS011;65234;50.044;19.258;2023-04-06T10:05:27;113.95;;;108.55;;
76405;SDS011;65234;50.044;19.258;2023-04-06T10:07:56;111.78;;;106.07;;
76405;SDS011;65234;50.044;19.258;2023-04-06T10:10:24;112.10;;;106.70;;
76405;SDS011;65234;50.044;19.258;2023-04-06T10:12:49;110.57;;;105.45;;
76405;SDS011;65234;50.044;19.258;2023-04-06T10:15:15;116.00;;;109.70;;
76405;SDS011;65234;50.044;19.258;2023-04-06T10:17:41;110.18;;;105.13;;
76405;SDS011;65234;50.044;19.258;2023-04-06T10:20:07;116.75;;;111.05;;
76405;SDS011;65234;50.044;19.258;2023-04-06T10:22:35;110.07;;;104.90;;
76405;SDS011;65234;50.044;19.258;2023-04-06T10:25:02;115.75;;;110.03;;
76405;SDS011;65234;50.044;19.258;2023-04-06T10:27:29;113.95;;;108.55;;
76405;SDS011;65234;50.044;19.258;2023-04-06T10:30:00;115.72;;;110.40;;
76405;SDS011;65234;50.044;19.258;2023-04-06T10:32:31;113.45;;;108.07;;
76405;SDS011;65234;50.044;19.258;2023-04-06T10:35:04;116.07;;;110.82;;
76405;SDS011;65234;50.044;19.258;2023-04-06T10:37:29;111.07;;;105.85;;
76405;SDS011;65234;50.044;19.258;2023-04-06T10:40:17;110.20;;;103.90;;
76405;SDS011;65234;50.044;19.258;2023-04-06T10:42:44;111.57;;;106.32;;
76405;SDS011;65234;50.044;19.258;2023-04-06T10:45:18;105.45;;;100.55;;
76405;SDS011;65234;50.044;19.258;2023-04-06T10:47:43;112.25;;;107.05;;
76405;SDS011;65234;50.044;19.258;2023-04-06T10:50:09;108.85;;;103.57;;
76405;SDS011;65234;50.044;19.258;2023-04-06T10:52:36;112.82;;;107.15;;
76405;SDS011;65234;50.044;19.258;2023-04-06T10:55:01;112.93;;;107.57;;
76405;SDS011;65234;50.044;19.258;2023-04-06T10:57:27;116.20;;;110.53;;
76405;SDS011;65234;50.044;19.258;2023-04-06T10:59:54;111.53;;;105.82;;
76405;SDS011;65234;50.044;19.258;2023-04-06T11:02:20;113.75;;;108.20;;
76405;SDS011;65234;50.044;19.258;2023-04-06T11:04:53;111.20;;;106.07;;
76405;SDS011;65234;50.044;19.258;2023-04-06T11:07:22;111.57;;;106.22;;
76405;SDS011;65234;50.044;19.258;2023-04-06T11:09:49;111.75;;;106.25;;
76405;SDS011;65234;50.044;19.258;2023-04-06T11:12:20;112.63;;;107.45;;
76405;SDS011;65234;50.044;19.258;2023-04-06T11:14:52;112.25;;;106.97;;
76405;SDS011;65234;50.044;19.258;2023-04-06T11:17:19;111.78;;;106.32;;
76405;SDS011;65234;50.044;19.258;2023-04-06T11:19:50;114.00;;;108.53;;
76405;SDS011;65234;50.044;19.258;2023-04-06T11:22:16;109.80;;;104.70;;
76405;SDS011;65234;50.044;19.258;2023-04-06T11:24:41;114.50;;;108.95;;
76405;SDS011;65234;50.044;19.258;2023-04-06T11:27:07;110.88;;;105.68;;
76405;SDS011;65234;50.044;19.258;2023-04-06T11:29:32;112.03;;;106.72;;
76405;SDS011;65234;50.044;19.258;2023-04-06T11:31:59;111.22;;;106.07;;
76405;SDS011;65234;50.044;19.258;2023-04-06T11:34:28;113.65;;;108.15;;
76405;SDS011;65234;50.044;19.258;2023-04-06T11:36:54;117.53;;;111.63;;
76405;SDS011;65234;50.044;19.258;2023-04-06T11:39:20;113.53;;;107.97;;
76405;SDS011;65234;50.044;19.258;2023-04-06T11:41:47;112.70;;;107.38;;
76405;SDS011;65234;50.044;19.258;2023-04-06T11:44:12;115.00;;;109.43;;
76405;SDS011;65234;50.044;19.258;2023-04-06T11:46:38;111.22;;;106.25;;
76405;SDS011;65234;50.044;19.258;2023-04-06T11:49:03;111.63;;;106.40;;
76405;SDS011;65234;50.044;19.258;2023-04-06T11:51:35;111.68;;;106.40;;
76405;SDS011;65234;50.044;19.258;2023-04-06T11:54:00;106.45;;;101.47;;
76405;SDS011;65234;50.044;19.258;2023-04-06T11:56:26;117.32;;;111.72;;
76405;SDS011;65234;50.044;19.258;2023-04-06T11:58:53;115.82;;;110.13;;
76405;SDS011;65234;50.044;19.258;2023-04-06T12:01:19;108.72;;;103.47;;
76405;SDS011;65234;50.044;19.258;2023-04-06T12:03:44;107.30;;;102.30;;
76405;SDS011;65234;50.044;19.258;2023-04-06T12:06:10;111.22;;;105.80;;
76405;SDS011;65234;50.044;19.258;2023-04-06T12:08:37;107.40;;;102.15;;
76405;SDS011;65234;50.044;19.258;2023-04-06T12:11:02;112.93;;;107.80;;
76405;SDS011;65234;50.044;19.258;2023-04-06T12:13:28;114.55;;;108.75;;
76405;SDS011;65234;50.044;19.258;2023-04-06T12:15:53;113.57;;;108.22;;
76405;SDS011;65234;50.044;19.258;2023-04-06T12:18:19;112.25;;;106.88;;
76405;SDS011;65234;50.044;19.258;2023-04-06T12:20:46;112.93;;;107.78;;
76405;SDS011;65234;50.044;19.258;2023-04-06T12:23:11;111.47;;;106.38;;
76405;SDS011;65234;50.044;19.258;2023-04-06T12:25:40;114.15;;;108.97;;
76405;SDS011;65234;50.044;19.258;2023-04-06T12:28:05;113.78;;;108.45;;
76405;SDS011;65234;50.044;19.258;2023-04-06T12:30:31;113.40;;;108.28;;
76405;SDS011;65234;50.044;19.258;2023-04-06T12:32:56;116.00;;;110.10;;
76405;SDS011;65234;50.044;19.258;2023-04-06T12:35:22;112.10;;;106.78;;
76405;SDS011;65234;50.044;19.258;2023-04-06T12:37:47;116.65;;;110.47;;
76405;SDS011;65234;50.044;19.258;2023-04-06T12:40:13;115.25;;;109.65;;
76405;SDS011;65234;50.044;19.258;2023-04-06T12:42:40;109.55;;;104.63;;
76405;SDS011;65234;50.044;19.258;2023-04-06T12:45:06;108.70;;;103.45;;
76405;SDS011;65234;50.044;19.258;2023-04-06T12:47:32;113.57;;;107.93;;
76405;SDS011;65234;50.044;19.258;2023-04-06T12:49:57;117.28;;;110.78;;
76405;SDS011;65234;50.044;19.258;2023-04-06T12:52:23;111.13;;;105.90;;
76405;SDS011;65234;50.044;19.258;2023-04-06T12:54:48;113.35;;;108.10;;
76405;SDS011;65234;50.044;19.258;2023-04-06T12:57:14;110.70;;;105.05;;
76405;SDS011;65234;50.044;19.258;2023-04-06T12:59:41;114.85;;;109.30;;
76405;SDS011;65234;50.044;19.258;2023-04-06T13:02:08;105.20;;;100.22;;
76405;SDS011;65234;50.044;19.258;2023-04-06T13:04:33;109.95;;;105.05;;
76405;SDS011;65234;50.044;19.258;2023-04-06T13:06:59;112.53;;;107.10;;
76405;SDS011;65234;50.044;19.258;2023-04-06T13:09:24;113.25;;;107.95;;
76405;SDS011;65234;50.044;19.258;2023-04-06T13:11:50;110.20;;;104.88;;
76405;SDS011;65234;50.044;19.258;2023-04-06T13:14:15;122.75;;;116.22;;
76405;SDS011;65234;50.044;19.258;2023-04-06T13:16:42;119.80;;;113.25;;
76405;SDS011;65234;50.044;19.258;2023-04-06T13:19:08;118.70;;;112.93;;
76405;SDS011;65234;50.044;19.258;2023-04-06T13:21:34;120.53;;;114.32;;
76405;SDS011;65234;50.044;19.258;2023-04-06T13:23:59;121.55;;;115.65;;
76405;SDS011;65234;50.044;19.258;2023-04-06T13:26:25;116.30;;;110.45;;
76405;SDS011;65234;50.044;19.258;2023-04-06T13:28:50;115.45;;;109.45;;
76405;SDS011;65234;50.044;19.258;2023-04-06T13:31:16;119.78;;;113.18;;
76405;SDS011;65234;50.044;19.258;2023-04-06T13:33:42;116.88;;;111.18;;
76405;SDS011;65234;50.044;19.258;2023-04-06T13:36:08;116.85;;;110.95;;
76405;SDS011;65234;50.044;19.258;2023-04-06T13:38:33;117.47;;;111.50;;
76405;SDS011;65234;50.044;19.258;2023-04-06T13:40:59;114.50;;;108.70;;